createdAt,value
2022-08-08T00:01:52.558Z,1.50
2022-08-08T00:04:48.928Z,2.08
2022-08-08T00:07:50.783Z,1.50
2022-08-08T00:10:28.638Z,1.50
2022-08-08T00:13:10.159Z,1.30
2022-08-08T00:15:56.634Z,2.80
2022-08-08T00:18:36.129Z,1.60
2022-08-08T00:21:07.679Z,1.90
2022-08-08T00:23:54.610Z,3.22
2022-08-08T00:26:36.487Z,2.78
2022-08-08T00:29:17.465Z,2.20
2022-08-08T00:32:34.503Z,3.00
2022-08-08T00:35:30.069Z,3.00
2022-08-08T00:38:16.679Z,3.30
2022-08-08T00:41:17.942Z,3.30
2022-08-08T00:44:11.321Z,3.30
2022-08-08T00:47:37.094Z,3.83
2022-08-08T00:50:56.912Z,3.70
2022-08-08T00:54:04.298Z,3.97
2022-08-08T00:57:23.449Z,3.70
2022-08-08T01:00:11.276Z,3.67
2022-08-08T01:03:59.627Z,3.30
2022-08-08T01:06:00.899Z,3.50
2022-08-08T01:08:46.716Z,3.55
2022-08-08T01:11:22.694Z,4.63
2022-08-08T01:14:04.159Z,3.50
2022-08-08T01:17:06.730Z,3.80
2022-08-08T01:20:03.003Z,4.65
2022-08-08T01:23:06.365Z,4.75
2022-08-08T01:26:02.218Z,5.05
2022-08-08T01:29:02.950Z,3.63
2022-08-08T01:32:15.143Z,4.05
2022-08-08T01:35:11.831Z,3.92
2022-08-08T01:37:59.023Z,4.35
2022-08-08T01:41:05.889Z,4.55
2022-08-08T01:43:59.268Z,4.70
2022-08-08T01:47:05.943Z,4.45
2022-08-08T01:50:21.241Z,4.90
2022-08-08T01:55:15.914Z,4.55
2022-08-08T01:56:28.417Z,4.20
2022-08-08T01:58:48.782Z,4.70
2022-08-08T02:01:54.681Z,4.30
2022-08-08T02:04:35.804Z,4.28
2022-08-08T02:07:24.183Z,3.97
2022-08-08T02:10:29.914Z,4.30
2022-08-08T02:13:52.545Z,4.25
2022-08-08T02:16:21.070Z,4.10
2022-08-08T02:19:00.475Z,4.72
2022-08-08T02:22:17.641Z,4.53
2022-08-08T02:24:52.558Z,3.83
2022-08-08T02:27:42.180Z,3.50
2022-08-08T02:30:25.730Z,3.83
2022-08-08T02:34:00.109Z,4.05
2022-08-08T02:36:46.628Z,4.10
2022-08-08T02:39:40.960Z,4.00
2022-08-08T02:43:00.681Z,3.80
2022-08-08T02:45:51.747Z,4.07
2022-08-08T02:48:51.042Z,3.92
2022-08-08T02:51:59.727Z,3.65
2022-08-08T02:54:38.219Z,3.78
2022-08-08T02:57:44.372Z,3.65
2022-08-08T03:00:31.829Z,3.40
2022-08-08T03:05:00.882Z,3.72
2022-08-08T03:06:34.945Z,4.35
2022-08-08T03:09:41.405Z,3.40
2022-08-08T03:12:17.912Z,3.45
2022-08-08T03:16:00.904Z,3.83
2022-08-08T03:18:30.761Z,3.80
2022-08-08T03:21:09.497Z,3.60
2022-08-08T03:23:54.728Z,3.40
2022-08-08T03:26:42.818Z,3.50
2022-08-08T03:29:26.738Z,3.78
2022-08-08T03:32:14.128Z,3.10
2022-08-08T03:34:41.745Z,3.28
2022-08-08T03:37:59.890Z,3.10
2022-08-08T03:40:06.645Z,3.58
2022-08-08T03:42:45.660Z,3.03
2022-08-08T03:46:05.746Z,3.00
2022-08-08T03:48:21.345Z,3.40
2022-08-08T03:51:06.876Z,3.22
2022-08-08T03:53:42.562Z,3.08
2022-08-08T03:56:31.873Z,3.30
2022-08-08T03:59:02.680Z,3.75
2022-08-08T04:02:22.882Z,3.00
2022-08-08T04:04:30.702Z,3.47
2022-08-08T04:07:01.284Z,2.90
2022-08-08T04:09:59.877Z,5.07
2022-08-08T04:12:22.816Z,3.25
2022-08-08T04:14:51.035Z,3.08
2022-08-08T04:17:46.051Z,3.70
2022-08-08T04:20:08.281Z,2.63
2022-08-08T04:22:36.962Z,3.00
2022-08-08T04:25:07.673Z,3.03
2022-08-08T04:28:02.451Z,3.42
2022-08-08T04:30:24.875Z,2.58
2022-08-08T04:32:53.556Z,3.08
2022-08-08T04:35:23.917Z,2.88
2022-08-08T04:37:54.512Z,2.63
2022-08-08T04:40:26.955Z,2.78
2022-08-08T04:43:00.754Z,2.90
2022-08-08T04:45:44.776Z,2.72
2022-08-08T04:48:14.907Z,3.05
2022-08-08T04:50:46.118Z,3.00
2022-08-08T04:54:36.618Z,2.67
2022-08-08T04:56:09.004Z,2.70
2022-08-08T04:58:36.645Z,3.28
2022-08-08T05:01:10.718Z,2.78
2022-08-08T05:04:07.906Z,3.35
2022-08-08T05:06:36.290Z,3.42
2022-08-08T05:09:07.145Z,2.22
2022-08-08T05:11:39.305Z,2.30
2022-08-08T05:14:12.313Z,2.22
2022-08-08T05:16:52.408Z,2.78
2022-08-08T05:20:10.985Z,2.47
2022-08-08T05:22:17.442Z,4.00
2022-08-08T05:24:48.628Z,2.55
2022-08-08T05:27:17.800Z,2.75
2022-08-08T05:29:45.917Z,2.55
2022-08-08T05:32:26.911Z,2.03
2022-08-08T05:37:49.279Z,2.47
2022-08-08T05:40:21.484Z,2.35
2022-08-08T05:43:38.151Z,2.28
2022-08-08T05:46:03.007Z,2.20
2022-08-08T05:48:34.574Z,2.05
2022-08-08T05:51:13.366Z,1.80
2022-08-08T05:54:25.167Z,2.28
2022-08-08T05:56:42.534Z,2.70
2022-08-08T05:59:59.937Z,2.25
2022-08-08T06:02:48.709Z,2.30
2022-08-08T06:05:35.100Z,2.00
2022-08-08T06:08:28.340Z,2.15
2022-08-08T06:11:05.073Z,2.00
2022-08-08T06:13:36.300Z,2.20
2022-08-08T06:16:19.121Z,1.83
2022-08-08T06:19:01.746Z,1.63
2022-08-08T06:21:51.296Z,1.58
2022-08-08T06:24:30.241Z,1.92
2022-08-08T06:27:09.688Z,1.75
2022-08-08T06:30:02.002Z,2.17
2022-08-08T06:32:47.710Z,1.33
2022-08-08T06:36:04.073Z,1.73
2022-08-08T06:38:14.528Z,1.88
2022-08-08T06:40:48.452Z,1.40
2022-08-08T06:43:30.665Z,1.80
2022-08-08T06:46:12.690Z,1.85
2022-08-08T06:48:42.691Z,2.38
2022-08-08T06:51:14.242Z,1.90
2022-08-08T06:53:50.754Z,1.83
2022-08-08T06:56:25.246Z,1.42
2022-08-08T06:58:54.514Z,2.33
2022-08-08T07:02:27.954Z,1.60
2022-08-08T07:04:38.540Z,1.70
2022-08-08T07:07:18.872Z,1.40
2022-08-08T07:10:10.011Z,1.45
2022-08-08T07:12:48.027Z,1.55
2022-08-08T07:16:04.532Z,1.23
2022-08-08T07:18:40.709Z,1.70
2022-08-08T07:21:19.007Z,1.73
2022-08-08T07:24:04.400Z,1.80
2022-08-08T07:26:53.038Z,1.50
2022-08-08T07:30:01.618Z,1.10
2022-08-08T07:32:15.777Z,1.00
2022-08-08T07:35:00.738Z,1.30
2022-08-08T07:37:49.675Z,1.50
2022-08-08T07:40:32.620Z,1.15
2022-08-08T07:43:09.658Z,1.40
2022-08-08T07:46:05.133Z,1.27
2022-08-08T07:48:33.242Z,1.13
2022-08-08T07:51:02.670Z,1.88
2022-08-08T07:54:01.022Z,1.58
2022-08-08T07:56:41.901Z,1.40
2022-08-08T07:59:15.274Z,1.10
2022-08-08T08:02:33.631Z,1.20
2022-08-08T08:04:49.111Z,1.42
2022-08-08T08:07:26.101Z,1.20
2022-08-08T08:10:05.278Z,1.25
2022-08-08T08:12:43.405Z,1.15
2022-08-08T08:15:18.362Z,1.00
2022-08-08T08:17:56.074Z,1.13
2022-08-08T08:20:30.396Z,1.00
2022-08-08T08:23:00.642Z,0.90
2022-08-08T08:25:43.838Z,1.50
2022-08-08T08:28:21.396Z,1.00
2022-08-08T08:30:54.351Z,1.33
2022-08-08T08:33:25.620Z,1.20
2022-08-08T08:36:19.845Z,0.90
2022-08-08T08:38:49.076Z,1.10
2022-08-08T08:41:23.945Z,1.08
2022-08-08T08:44:13.262Z,0.93
2022-08-08T08:46:44.031Z,0.85
2022-08-08T08:49:14.800Z,0.95
2022-08-08T08:51:51.253Z,0.90
2022-08-08T08:54:25.319Z,0.93
2022-08-08T08:56:56.152Z,1.60
2022-08-08T08:59:57.571Z,0.80
2022-08-08T09:02:26.512Z,1.08
2022-08-08T09:04:59.439Z,1.10
2022-08-08T09:07:39.148Z,1.20
2022-08-08T09:10:18.351Z,0.70
2022-08-08T09:12:50.518Z,1.27
2022-08-08T09:15:37.125Z,0.80
2022-08-08T09:18:06.120Z,0.63
2022-08-08T09:21:57.186Z,0.82
2022-08-08T09:23:25.406Z,0.40
2022-08-08T09:26:03.330Z,0.70
2022-08-08T09:28:39.553Z,0.80
2022-08-08T09:31:24.311Z,0.80
2022-08-08T09:34:31.261Z,1.10
2022-08-08T09:37:29.178Z,1.45
2022-08-08T09:40:04.441Z,1.00
2022-08-08T09:43:01.881Z,1.00
2022-08-08T09:45:54.751Z,0.80
2022-08-08T09:48:35.449Z,1.30
2022-08-08T09:51:05.033Z,0.82
2022-08-08T09:54:00.097Z,0.55
2022-08-08T09:56:40.925Z,0.65
2022-08-08T09:59:40.480Z,1.27
2022-08-08T10:02:12.209Z,0.80
2022-08-08T10:04:48.088Z,1.23
2022-08-08T10:07:17.273Z,1.20
2022-08-08T10:09:58.911Z,1.05
2022-08-08T10:12:38.886Z,0.80
2022-08-08T10:15:22.471Z,0.98
2022-08-08T10:18:05.474Z,1.00
2022-08-08T10:20:57.575Z,0.63
2022-08-08T10:23:55.544Z,0.95
2022-08-08T10:26:52.276Z,0.70
2022-08-08T10:29:24.994Z,0.77
2022-08-08T10:32:16.396Z,2.13
2022-08-08T10:34:57.109Z,1.08
2022-08-08T10:37:34.725Z,0.82
2022-08-08T10:40:16.104Z,0.80
2022-08-08T10:42:45.914Z,0.70
2022-08-08T10:45:16.410Z,0.73
2022-08-08T10:47:48.263Z,1.00
2022-08-08T10:50:20.907Z,0.80
2022-08-08T10:52:51.507Z,0.68
2022-08-08T10:55:39.718Z,0.73
2022-08-08T10:58:09.578Z,0.73
2022-08-08T11:00:53.351Z,1.02
2022-08-08T11:04:00.774Z,0.88
2022-08-08T11:06:31.502Z,0.68
2022-08-08T11:09:14.946Z,1.02
2022-08-08T11:12:06.064Z,0.77
2022-08-08T11:14:34.793Z,1.40
2022-08-08T11:17:03.847Z,0.60
2022-08-08T11:19:33.802Z,0.70
2022-08-08T11:22:04.099Z,0.75
2022-08-08T11:24:35.607Z,0.60
2022-08-08T11:27:10.755Z,0.73
2022-08-08T11:30:18.601Z,1.60
2022-08-08T11:32:42.509Z,0.50
2022-08-08T11:35:25.975Z,1.10
2022-08-08T11:38:39.037Z,0.68
2022-08-08T11:40:52.585Z,0.60
2022-08-08T11:43:24.392Z,0.60
2022-08-08T11:46:09.938Z,0.77
2022-08-08T11:48:41.223Z,0.68
2022-08-08T11:51:38.918Z,1.13
2022-08-08T11:54:01.150Z,0.77
2022-08-08T11:56:34.957Z,0.70
2022-08-08T11:59:12.003Z,0.55
2022-08-08T12:01:39.392Z,0.90
2022-08-08T12:04:08.607Z,0.60
2022-08-08T12:06:35.659Z,0.75
2022-08-08T12:09:09.775Z,0.57
2022-08-08T12:11:45.993Z,1.00
2022-08-08T12:14:28.975Z,0.90
2022-08-08T12:16:57.300Z,0.90
2022-08-08T12:19:37.386Z,0.88
2022-08-08T12:22:20.582Z,0.68
2022-08-08T12:24:54.302Z,1.00
2022-08-08T12:27:26.582Z,0.80
2022-08-08T12:30:02.183Z,0.68
2022-08-08T12:32:31.137Z,0.70
2022-08-08T12:35:13.251Z,0.90
2022-08-08T12:38:01.900Z,0.85
2022-08-08T12:40:56.815Z,1.20
2022-08-08T12:43:40.194Z,0.70
2022-08-08T12:46:26.165Z,1.20
2022-08-08T12:49:25.227Z,0.70
2022-08-08T12:51:59.266Z,0.60
2022-08-08T12:54:33.113Z,0.95
2022-08-08T12:57:00.864Z,1.60
2022-08-08T12:59:44.524Z,0.80
2022-08-08T13:02:28.347Z,0.70
2022-08-08T13:04:58.214Z,0.73
2022-08-08T13:08:03.461Z,1.23
2022-08-08T13:10:36.642Z,0.65
2022-08-08T13:13:37.225Z,0.68
2022-08-08T13:16:25.944Z,0.57
2022-08-08T13:18:57.222Z,1.17
2022-08-08T13:21:48.570Z,0.85
2022-08-08T13:24:18.999Z,0.85
2022-08-08T13:27:04.855Z,0.80
2022-08-08T13:29:37.982Z,1.10
2022-08-08T13:32:10.912Z,1.00
2022-08-08T13:34:40.213Z,0.73
2022-08-08T13:37:10.990Z,0.80
2022-08-08T13:39:55.344Z,0.57
2022-08-08T13:42:24.301Z,0.63
2022-08-08T13:44:56.519Z,0.40
2022-08-08T13:47:23.924Z,0.73
2022-08-08T13:50:36.439Z,0.80
2022-08-08T13:52:48.916Z,0.70
2022-08-08T13:55:29.473Z,0.98
2022-08-08T13:58:07.798Z,2.25
2022-08-08T14:00:40.420Z,1.15
2022-08-08T14:03:47.167Z,0.80
2022-08-08T14:06:33.709Z,0.60
2022-08-08T14:08:58.870Z,0.95
2022-08-08T14:11:28.373Z,0.60
2022-08-08T14:14:00.264Z,0.50
2022-08-08T14:16:28.149Z,0.70
2022-08-08T14:18:58.070Z,0.93
2022-08-08T14:21:52.324Z,0.80
2022-08-08T14:24:34.255Z,1.00
2022-08-08T14:27:01.588Z,0.60
2022-08-08T14:29:30.440Z,0.60
2022-08-08T14:32:10.564Z,0.57
2022-08-08T14:34:42.711Z,0.70
2022-08-08T14:37:12.822Z,0.68
2022-08-08T14:40:10.879Z,1.10
2022-08-08T14:42:55.290Z,0.98
2022-08-08T14:45:33.412Z,0.98
2022-08-08T14:48:27.429Z,0.88
2022-08-08T14:51:07.225Z,0.90
2022-08-08T14:53:55.912Z,0.63
2022-08-08T14:56:27.400Z,1.20
2022-08-08T14:58:56.591Z,0.60
2022-08-08T15:01:37.267Z,0.70
2022-08-08T15:04:09.537Z,0.90
2022-08-08T15:06:37.600Z,0.90
2022-08-08T15:09:07.174Z,1.10
2022-08-08T15:11:43.406Z,0.75
2022-08-08T15:14:20.732Z,0.88
2022-08-08T15:16:52.301Z,0.70
2022-08-08T15:19:19.434Z,1.20
2022-08-08T15:21:47.175Z,0.93
2022-08-08T15:24:16.079Z,1.33
2022-08-08T15:26:52.368Z,1.20
2022-08-08T15:29:22.450Z,1.05
2022-08-08T15:32:19.019Z,1.00
2022-08-08T15:34:38.853Z,1.00
2022-08-08T15:37:07.618Z,0.80
2022-08-08T15:39:38.271Z,1.63
2022-08-08T15:42:13.210Z,1.15
2022-08-08T15:44:45.761Z,1.13
2022-08-08T15:47:15.261Z,1.00
2022-08-08T15:49:47.814Z,1.30
2022-08-08T15:52:17.513Z,0.80
2022-08-08T15:54:51.456Z,0.80
2022-08-08T15:57:19.406Z,0.90
2022-08-08T16:00:06.224Z,1.08
2022-08-08T16:02:44.574Z,1.10
2022-08-08T16:05:23.764Z,1.52
2022-08-08T16:07:53.908Z,0.90
2022-08-08T16:13:04.682Z,1.52
2022-08-08T16:13:32.240Z,1.02
2022-08-08T16:16:17.268Z,1.10
2022-08-08T16:18:56.322Z,1.00
2022-08-08T16:21:30.846Z,2.08
2022-08-08T16:24:01.964Z,1.45
2022-08-08T16:26:32.977Z,1.58
2022-08-08T16:29:16.140Z,1.67
2022-08-08T16:31:48.958Z,1.17
2022-08-08T16:34:19.792Z,1.55
2022-08-08T16:36:50.262Z,1.63
2022-08-08T16:40:01.428Z,1.55
2022-08-08T16:42:05.934Z,1.40
2022-08-08T16:44:33.682Z,1.40
2022-08-08T16:47:31.702Z,1.00
2022-08-08T16:50:15.209Z,1.35
2022-08-08T16:55:00.059Z,2.42
2022-08-08T16:55:55.518Z,1.13
2022-08-08T16:58:26.860Z,1.52
2022-08-08T17:00:59.084Z,1.83
2022-08-08T17:03:59.985Z,1.58
2022-08-08T17:06:35.296Z,1.70
2022-08-08T17:09:02.410Z,1.48
2022-08-08T17:11:39.275Z,1.42
2022-08-08T17:14:18.903Z,2.25
2022-08-08T17:16:51.747Z,1.40
2022-08-08T17:19:25.210Z,1.60
2022-08-08T17:21:52.180Z,1.58
2022-08-08T17:24:28.025Z,1.48
2022-08-08T17:26:58.813Z,1.50
2022-08-08T17:29:27.507Z,1.13
2022-08-08T17:31:57.449Z,1.67
2022-08-08T17:34:53.450Z,1.88
2022-08-08T17:37:13.625Z,1.80
2022-08-08T17:40:03.211Z,1.60
2022-08-08T17:42:28.124Z,1.58
2022-08-08T17:44:58.551Z,1.38
2022-08-08T17:47:40.115Z,1.63
2022-08-08T17:50:09.675Z,1.45
2022-08-08T17:52:38.449Z,1.63
2022-08-08T17:56:05.299Z,1.10
2022-08-08T17:57:59.006Z,1.30
2022-08-08T18:00:30.723Z,1.17
2022-08-08T18:03:08.723Z,1.65
2022-08-08T18:05:48.501Z,1.38
2022-08-08T18:08:24.704Z,1.95
2022-08-08T18:11:11.567Z,1.25
2022-08-08T18:13:41.919Z,1.20
2022-08-08T18:16:10.353Z,1.20
2022-08-08T18:18:45.265Z,1.45
2022-08-08T18:21:35.082Z,1.40
2022-08-08T18:24:17.373Z,1.63
2022-08-08T18:26:53.873Z,1.38
2022-08-08T18:29:30.237Z,1.50
2022-08-08T18:32:03.506Z,1.45
2022-08-08T18:34:32.930Z,1.25
2022-08-08T18:37:04.695Z,1.50
2022-08-08T18:39:35.656Z,1.42
2022-08-08T18:42:12.949Z,1.42
2022-08-08T18:44:42.177Z,1.27
2022-08-08T18:47:09.267Z,1.95
2022-08-08T18:49:58.071Z,1.27
2022-08-08T18:52:24.123Z,1.33
2022-08-08T18:55:00.897Z,1.52
2022-08-08T18:57:44.733Z,1.33
2022-08-08T19:00:15.619Z,1.23
2022-08-08T19:02:55.459Z,1.25
2022-08-08T19:05:34.006Z,1.65
2022-08-08T19:08:29.186Z,1.17
2022-08-08T19:11:02.181Z,1.58
2022-08-08T19:13:53.014Z,1.23
2022-08-08T19:16:20.163Z,1.50
2022-08-08T19:18:53.416Z,1.42
2022-08-08T19:21:30.291Z,2.33
2022-08-08T19:23:58.437Z,1.55
2022-08-08T19:26:30.903Z,1.38
2022-08-08T19:29:00.483Z,1.95
2022-08-08T19:31:31.544Z,1.48
2022-08-08T19:34:35.696Z,1.40
2022-08-08T19:36:55.346Z,1.58
2022-08-08T19:39:25.454Z,1.52
2022-08-08T19:41:58.011Z,1.42
2022-08-08T19:44:42.523Z,1.52
2022-08-08T19:47:12.347Z,1.65
2022-08-08T19:49:39.771Z,1.17
2022-08-08T19:52:13.293Z,1.50
2022-08-08T19:54:43.156Z,2.45
2022-08-08T19:57:11.290Z,1.50
2022-08-08T19:59:43.721Z,1.55
2022-08-08T20:02:12.024Z,1.75
2022-08-08T20:04:39.198Z,1.52
2022-08-08T20:08:31.102Z,1.30
2022-08-08T20:09:59.029Z,1.38
2022-08-08T20:12:32.415Z,1.65
2022-08-08T20:15:16.557Z,1.52
2022-08-08T20:17:46.916Z,1.55
2022-08-08T20:20:19.602Z,1.50
2022-08-08T20:22:54.033Z,1.50
2022-08-08T20:25:26.367Z,1.45
2022-08-08T20:27:59.379Z,1.70
2022-08-08T20:30:53.871Z,2.13
2022-08-08T20:35:58.788Z,1.30
2022-08-08T20:38:32.387Z,1.53
2022-08-08T20:41:05.897Z,2.03
2022-08-08T20:43:48.168Z,1.52
2022-08-08T20:46:16.639Z,1.55
2022-08-08T20:48:44.474Z,1.23
2022-08-08T20:51:11.443Z,1.70
2022-08-08T20:53:59.360Z,1.75
2022-08-08T20:56:35.929Z,1.58
2022-08-08T20:59:09.050Z,1.30
2022-08-08T21:02:05.661Z,1.55
2022-08-08T21:04:27.710Z,1.55
2022-08-08T21:06:55.468Z,1.75
2022-08-08T21:09:23.086Z,1.70
2022-08-08T21:12:02.874Z,1.55
2022-08-08T21:14:34.697Z,1.30
2022-08-08T21:17:06.763Z,1.38
2022-08-08T21:19:46.102Z,1.67
2022-08-08T21:22:15.781Z,1.63
2022-08-08T21:24:52.769Z,1.80
2022-08-08T21:28:06.551Z,1.65
2022-08-08T21:30:17.882Z,1.70
2022-08-08T21:32:52.522Z,1.20
2022-08-08T21:36:16.239Z,1.48
2022-08-08T21:38:16.687Z,1.10
2022-08-08T21:40:55.052Z,1.20
2022-08-08T21:43:33.336Z,1.58
2022-08-08T21:48:05.024Z,0.98
2022-08-08T21:48:55.296Z,1.70
2022-08-08T21:54:22.800Z,1.00
2022-08-08T21:54:32.000Z,1.75
2022-08-08T21:57:01.192Z,2.03
2022-08-08T22:00:01.825Z,1.50
2022-08-08T22:02:22.916Z,1.50
2022-08-08T22:04:56.037Z,2.38
2022-08-08T22:07:39.512Z,1.17
2022-08-08T22:10:09.611Z,1.35
2022-08-08T22:12:38.927Z,1.10
2022-08-08T22:15:07.654Z,1.20
2022-08-08T22:17:41.425Z,1.50
2022-08-08T22:20:18.789Z,1.15
2022-08-08T22:22:51.086Z,1.35
2022-08-08T22:25:25.269Z,1.45
2022-08-08T22:28:02.666Z,1.63
2022-08-08T22:30:32.606Z,1.30
2022-08-08T22:33:01.559Z,1.30
2022-08-08T22:36:05.206Z,1.23
2022-08-08T22:38:17.676Z,1.17
2022-08-08T22:40:45.038Z,1.30
2022-08-08T22:43:15.704Z,1.45
2022-08-08T22:45:46.596Z,1.33
2022-08-08T22:48:21.791Z,1.70
2022-08-08T22:50:49.685Z,1.98
2022-08-08T22:54:32.305Z,2.22
2022-08-08T22:56:05.285Z,1.67
2022-08-08T22:58:34.215Z,1.52
2022-08-08T23:02:00.570Z,2.42
2022-08-08T23:03:56.437Z,2.53
2022-08-08T23:06:25.481Z,1.85
2022-08-08T23:08:55.683Z,1.65
2022-08-08T23:11:31.269Z,1.50
2022-08-08T23:14:18.683Z,1.40
2022-08-08T23:16:54.744Z,2.10
2022-08-08T23:19:26.044Z,1.83
2022-08-08T23:21:53.404Z,1.52
2022-08-08T23:24:22.513Z,1.75
2022-08-08T23:26:53.446Z,1.35
2022-08-08T23:29:24.894Z,1.90
2022-08-08T23:31:52.215Z,1.90
2022-08-08T23:34:20.028Z,2.00
2022-08-08T23:36:48.518Z,1.63
2022-08-08T23:39:15.818Z,1.55
2022-08-08T23:41:46.927Z,1.70
2022-08-08T23:44:18.654Z,1.70
2022-08-08T23:49:04.329Z,2.13
2022-08-08T23:49:35.423Z,2.25
2022-08-08T23:52:04.941Z,1.85
2022-08-08T23:54:53.428Z,1.63
2022-08-08T23:57:38.783Z,1.73
